sensor_id;sensor_type;location;lat;lon;timestamp;P1;durP1;ratioP1;P2;durP2;ratioP2
75626;SDS011;64211;49.404;11.034;2022-12-07T00:01:19;9.35;;;4.65;;
75626;SDS011;64211;49.404;11.034;2022-12-07T00:03:57;8.65;;;4.75;;
75626;SDS011;64211;49.404;11.034;2022-12-07T00:06:35;10.30;;;4.80;;
75626;SDS011;64211;49.404;11.034;2022-12-07T00:26:41;8.50;;;4.30;;
75626;SDS011;64211;49.404;11.034;2022-12-07T00:29:14;7.68;;;4.15;;
75626;SDS011;64211;49.404;11.034;2022-12-07T00:31:45;10.68;;;5.20;;
75626;SDS011;64211;49.404;11.034;2022-12-07T00:58:23;9.82;;;5.32;;
75626;SDS011;64211;49.404;11.034;2022-12-07T01:00:50;9.27;;;5.18;;
75626;SDS011;64211;49.404;11.034;2022-12-07T01:03:16;9.85;;;4.40;;
75626;SDS011;64211;49.404;11.034;2022-12-07T01:05:50;9.95;;;4.75;;
75626;SDS011;64211;49.404;11.034;2022-12-07T01:08:18;11.48;;;5.78;;
75626;SDS011;64211;49.404;11.034;2022-12-07T01:10:46;11.73;;;5.13;;
75626;SDS011;64211;49.404;11.034;2022-12-07T01:13:12;10.63;;;5.45;;
75626;SDS011;64211;49.404;11.034;2022-12-07T01:15:42;10.13;;;5.28;;
75626;SDS011;64211;49.404;11.034;2022-12-07T01:18:10;8.23;;;4.30;;
75626;SDS011;64211;49.404;11.034;2022-12-07T01:20:37;10.70;;;5.05;;
75626;SDS011;64211;49.404;11.034;2022-12-07T01:23:03;10.52;;;5.00;;
75626;SDS011;64211;49.404;11.034;2022-12-07T01:25:30;9.90;;;4.68;;
75626;SDS011;64211;49.404;11.034;2022-12-07T01:27:57;10.50;;;5.07;;
75626;SDS011;64211;49.404;11.034;2022-12-07T01:30:24;9.43;;;4.63;;
75626;SDS011;64211;49.404;11.034;2022-12-07T01:32:50;11.93;;;5.97;;
75626;SDS011;64211;49.404;11.034;2022-12-07T01:35:17;10.68;;;5.28;;
75626;SDS011;64211;49.404;11.034;2022-12-07T01:37:43;11.93;;;5.00;;
75626;SDS011;64211;49.404;11.034;2022-12-07T01:40:10;12.90;;;5.15;;
75626;SDS011;64211;49.404;11.034;2022-12-07T01:42:37;11.95;;;5.50;;
75626;SDS011;64211;49.404;11.034;2022-12-07T01:48:03;11.45;;;4.60;;
75626;SDS011;64211;49.404;11.034;2022-12-07T01:50:31;13.52;;;5.38;;
75626;SDS011;64211;49.404;11.034;2022-12-07T01:52:58;11.75;;;5.35;;
75626;SDS011;64211;49.404;11.034;2022-12-07T01:55:27;11.75;;;6.05;;
75626;SDS011;64211;49.404;11.034;2022-12-07T01:57:55;11.95;;;5.68;;
75626;SDS011;64211;49.404;11.034;2022-12-07T02:00:21;11.75;;;5.88;;
75626;SDS011;64211;49.404;11.034;2022-12-07T02:02:51;14.98;;;6.03;;
75626;SDS011;64211;49.404;11.034;2022-12-07T02:05:21;10.50;;;5.28;;
75626;SDS011;64211;49.404;11.034;2022-12-07T02:07:50;13.70;;;5.65;;
75626;SDS011;64211;49.404;11.034;2022-12-07T02:10:21;11.95;;;5.25;;
75626;SDS011;64211;49.404;11.034;2022-12-07T02:13:10;11.90;;;5.22;;
75626;SDS011;64211;49.404;11.034;2022-12-07T02:18:59;12.40;;;5.40;;
75626;SDS011;64211;49.404;11.034;2022-12-07T02:24:20;10.50;;;5.50;;
75626;SDS011;64211;49.404;11.034;2022-12-07T02:29:58;11.50;;;5.40;;
75626;SDS011;64211;49.404;11.034;2022-12-07T02:33:12;11.98;;;4.95;;
75626;SDS011;64211;49.404;11.034;2022-12-07T02:35:35;12.23;;;5.68;;
75626;SDS011;64211;49.404;11.034;2022-12-07T02:51:32;12.85;;;5.95;;
75626;SDS011;64211;49.404;11.034;2022-12-07T02:53:59;12.98;;;6.88;;
75626;SDS011;64211;49.404;11.034;2022-12-07T03:07:11;15.05;;;5.82;;
75626;SDS011;64211;49.404;11.034;2022-12-07T03:15:28;11.52;;;5.80;;
75626;SDS011;64211;49.404;11.034;2022-12-07T03:18:10;14.13;;;6.30;;
75626;SDS011;64211;49.404;11.034;2022-12-07T03:23:21;15.60;;;5.93;;
75626;SDS011;64211;49.404;11.034;2022-12-07T03:25:52;14.43;;;6.13;;
75626;SDS011;64211;49.404;11.034;2022-12-07T03:28:26;14.52;;;5.53;;
75626;SDS011;64211;49.404;11.034;2022-12-07T03:31:02;13.27;;;6.18;;
75626;SDS011;64211;49.404;11.034;2022-12-07T03:33:49;14.35;;;5.95;;
75626;SDS011;64211;49.404;11.034;2022-12-07T03:36:26;13.73;;;5.28;;
75626;SDS011;64211;49.404;11.034;2022-12-07T03:41:58;12.98;;;5.88;;
75626;SDS011;64211;49.404;11.034;2022-12-07T03:44:27;13.63;;;5.65;;
75626;SDS011;64211;49.404;11.034;2022-12-07T03:49:41;14.05;;;5.78;;
75626;SDS011;64211;49.404;11.034;2022-12-07T03:52:17;15.75;;;5.97;;
75626;SDS011;64211;49.404;11.034;2022-12-07T03:54:58;14.05;;;6.20;;
75626;SDS011;64211;49.404;11.034;2022-12-07T03:57:29;13.55;;;5.25;;
75626;SDS011;64211;49.404;11.034;2022-12-07T04:05:14;13.87;;;5.53;;
75626;SDS011;64211;49.404;11.034;2022-12-07T04:10:22;12.10;;;5.97;;
75626;SDS011;64211;49.404;11.034;2022-12-07T04:12:48;15.23;;;6.07;;
75626;SDS011;64211;49.404;11.034;2022-12-07T04:15:15;15.40;;;6.30;;
75626;SDS011;64211;49.404;11.034;2022-12-07T04:17:42;15.27;;;5.63;;
75626;SDS011;64211;49.404;11.034;2022-12-07T04:20:08;15.07;;;6.30;;
75626;SDS011;64211;49.404;11.034;2022-12-07T04:22:35;14.45;;;5.95;;
75626;SDS011;64211;49.404;11.034;2022-12-07T04:25:02;17.65;;;6.95;;
75626;SDS011;64211;49.404;11.034;2022-12-07T04:27:28;15.63;;;6.30;;
75626;SDS011;64211;49.404;11.034;2022-12-07T04:29:55;17.08;;;6.65;;
75626;SDS011;64211;49.404;11.034;2022-12-07T04:32:22;13.05;;;6.25;;
75626;SDS011;64211;49.404;11.034;2022-12-07T04:34:49;13.50;;;6.60;;
75626;SDS011;64211;49.404;11.034;2022-12-07T04:37:21;13.35;;;5.50;;
75626;SDS011;64211;49.404;11.034;2022-12-07T04:39:47;14.23;;;5.85;;
75626;SDS011;64211;49.404;11.034;2022-12-07T04:42:14;13.60;;;6.30;;
75626;SDS011;64211;49.404;11.034;2022-12-07T04:44:40;16.17;;;6.45;;
75626;SDS011;64211;49.404;11.034;2022-12-07T04:47:07;14.38;;;5.70;;
75626;SDS011;64211;49.404;11.034;2022-12-07T04:49:33;16.33;;;6.00;;
75626;SDS011;64211;49.404;11.034;2022-12-07T04:51:59;13.85;;;6.25;;
75626;SDS011;64211;49.404;11.034;2022-12-07T04:54:26;15.15;;;6.28;;
75626;SDS011;64211;49.404;11.034;2022-12-07T04:56:52;14.75;;;6.03;;
75626;SDS011;64211;49.404;11.034;2022-12-07T04:59:19;14.68;;;6.85;;
75626;SDS011;64211;49.404;11.034;2022-12-07T05:01:45;12.93;;;5.95;;
75626;SDS011;64211;49.404;11.034;2022-12-07T05:04:11;13.77;;;5.65;;
75626;SDS011;64211;49.404;11.034;2022-12-07T05:06:39;14.15;;;5.47;;
75626;SDS011;64211;49.404;11.034;2022-12-07T05:09:05;14.85;;;6.05;;
75626;SDS011;64211;49.404;11.034;2022-12-07T05:11:32;15.68;;;6.50;;
75626;SDS011;64211;49.404;11.034;2022-12-07T05:14:22;14.80;;;6.80;;
75626;SDS011;64211;49.404;11.034;2022-12-07T05:16:49;15.52;;;6.80;;
75626;SDS011;64211;49.404;11.034;2022-12-07T05:21:52;15.50;;;6.88;;
75626;SDS011;64211;49.404;11.034;2022-12-07T05:24:18;16.52;;;6.55;;
75626;SDS011;64211;49.404;11.034;2022-12-07T05:26:45;14.65;;;6.10;;
75626;SDS011;64211;49.404;11.034;2022-12-07T05:29:12;15.77;;;6.53;;
75626;SDS011;64211;49.404;11.034;2022-12-07T05:31:40;17.45;;;7.07;;
75626;SDS011;64211;49.404;11.034;2022-12-07T05:34:07;17.90;;;7.07;;
75626;SDS011;64211;49.404;11.034;2022-12-07T05:36:34;17.25;;;7.05;;
75626;SDS011;64211;49.404;11.034;2022-12-07T05:39:01;18.23;;;7.40;;
75626;SDS011;64211;49.404;11.034;2022-12-07T05:41:28;19.33;;;7.18;;
75626;SDS011;64211;49.404;11.034;2022-12-07T05:44:13;18.45;;;7.43;;
75626;SDS011;64211;49.404;11.034;2022-12-07T05:46:41;21.73;;;8.85;;
75626;SDS011;64211;49.404;11.034;2022-12-07T05:49:07;17.55;;;7.38;;
75626;SDS011;64211;49.404;11.034;2022-12-07T05:51:34;17.08;;;6.95;;
75626;SDS011;64211;49.404;11.034;2022-12-07T05:54:00;20.05;;;7.68;;
75626;SDS011;64211;49.404;11.034;2022-12-07T05:56:27;20.83;;;8.18;;
75626;SDS011;64211;49.404;11.034;2022-12-07T05:58:53;20.35;;;7.63;;
75626;SDS011;64211;49.404;11.034;2022-12-07T06:01:38;20.60;;;7.35;;
75626;SDS011;64211;49.404;11.034;2022-12-07T06:04:06;17.45;;;7.32;;
75626;SDS011;64211;49.404;11.034;2022-12-07T06:06:32;19.20;;;7.35;;
75626;SDS011;64211;49.404;11.034;2022-12-07T06:08:59;17.58;;;7.18;;
75626;SDS011;64211;49.404;11.034;2022-12-07T06:11:25;15.00;;;6.85;;
75626;SDS011;64211;49.404;11.034;2022-12-07T06:14:10;19.02;;;7.43;;
75626;SDS011;64211;49.404;11.034;2022-12-07T06:16:37;18.10;;;7.60;;
75626;SDS011;64211;49.404;11.034;2022-12-07T06:19:04;15.35;;;7.15;;
75626;SDS011;64211;49.404;11.034;2022-12-07T06:21:30;20.85;;;7.65;;
75626;SDS011;64211;49.404;11.034;2022-12-07T06:23:57;20.60;;;7.57;;
75626;SDS011;64211;49.404;11.034;2022-12-07T06:26:23;18.98;;;7.35;;
75626;SDS011;64211;49.404;11.034;2022-12-07T06:28:50;20.02;;;7.10;;
75626;SDS011;64211;49.404;11.034;2022-12-07T06:31:16;17.25;;;7.53;;
75626;SDS011;64211;49.404;11.034;2022-12-07T06:33:43;16.50;;;7.10;;
75626;SDS011;64211;49.404;11.034;2022-12-07T06:36:09;16.45;;;6.55;;
75626;SDS011;64211;49.404;11.034;2022-12-07T06:38:36;16.50;;;7.13;;
75626;SDS011;64211;49.404;11.034;2022-12-07T06:41:02;18.88;;;7.00;;
75626;SDS011;64211;49.404;11.034;2022-12-07T06:43:28;20.45;;;7.38;;
75626;SDS011;64211;49.404;11.034;2022-12-07T06:45:55;20.02;;;6.80;;
75626;SDS011;64211;49.404;11.034;2022-12-07T06:48:22;20.48;;;7.88;;
75626;SDS011;64211;49.404;11.034;2022-12-07T06:50:49;19.48;;;7.65;;
75626;SDS011;64211;49.404;11.034;2022-12-07T06:53:20;16.20;;;7.18;;
75626;SDS011;64211;49.404;11.034;2022-12-07T06:55:47;16.25;;;6.40;;
75626;SDS011;64211;49.404;11.034;2022-12-07T06:58:13;18.60;;;7.53;;
75626;SDS011;64211;49.404;11.034;2022-12-07T07:00:40;19.35;;;8.20;;
75626;SDS011;64211;49.404;11.034;2022-12-07T07:03:06;15.48;;;6.88;;
75626;SDS011;64211;49.404;11.034;2022-12-07T07:05:33;16.13;;;6.38;;
75626;SDS011;64211;49.404;11.034;2022-12-07T07:07:59;18.42;;;6.45;;
75626;SDS011;64211;49.404;11.034;2022-12-07T07:10:45;15.68;;;6.60;;
75626;SDS011;64211;49.404;11.034;2022-12-07T07:13:12;16.83;;;6.63;;
75626;SDS011;64211;49.404;11.034;2022-12-07T07:15:38;20.88;;;7.00;;
75626;SDS011;64211;49.404;11.034;2022-12-07T07:18:05;17.42;;;6.68;;
75626;SDS011;64211;49.404;11.034;2022-12-07T07:20:33;18.10;;;6.75;;
75626;SDS011;64211;49.404;11.034;2022-12-07T07:23:00;16.88;;;6.63;;
75626;SDS011;64211;49.404;11.034;2022-12-07T07:25:26;16.63;;;6.95;;
75626;SDS011;64211;49.404;11.034;2022-12-07T07:27:53;16.95;;;7.13;;
75626;SDS011;64211;49.404;11.034;2022-12-07T07:30:19;17.63;;;7.00;;
75626;SDS011;64211;49.404;11.034;2022-12-07T07:32:46;16.15;;;5.78;;
75626;SDS011;64211;49.404;11.034;2022-12-07T07:35:12;15.73;;;6.57;;
75626;SDS011;64211;49.404;11.034;2022-12-07T07:37:40;17.73;;;6.32;;
75626;SDS011;64211;49.404;11.034;2022-12-07T07:40:07;17.58;;;6.75;;
75626;SDS011;64211;49.404;11.034;2022-12-07T07:42:34;17.33;;;7.18;;
75626;SDS011;64211;49.404;11.034;2022-12-07T07:45:01;16.15;;;6.25;;
75626;SDS011;64211;49.404;11.034;2022-12-07T07:47:27;18.13;;;7.13;;
75626;SDS011;64211;49.404;11.034;2022-12-07T07:49:55;15.63;;;6.22;;
75626;SDS011;64211;49.404;11.034;2022-12-07T07:52:21;17.73;;;7.15;;
75626;SDS011;64211;49.404;11.034;2022-12-07T07:54:47;19.85;;;7.60;;
75626;SDS011;64211;49.404;11.034;2022-12-07T07:57:15;21.45;;;7.47;;
75626;SDS011;64211;49.404;11.034;2022-12-07T07:59:42;18.15;;;7.53;;
75626;SDS011;64211;49.404;11.034;2022-12-07T08:02:12;16.05;;;6.25;;
75626;SDS011;64211;49.404;11.034;2022-12-07T08:04:41;19.17;;;7.32;;
75626;SDS011;64211;49.404;11.034;2022-12-07T08:07:08;20.13;;;8.43;;
75626;SDS011;64211;49.404;11.034;2022-12-07T08:09:34;18.98;;;7.18;;
75626;SDS011;64211;49.404;11.034;2022-12-07T08:12:01;18.40;;;7.65;;
75626;SDS011;64211;49.404;11.034;2022-12-07T08:14:27;18.33;;;7.35;;
75626;SDS011;64211;49.404;11.034;2022-12-07T08:16:54;18.67;;;7.40;;
75626;SDS011;64211;49.404;11.034;2022-12-07T08:19:21;18.80;;;7.13;;
75626;SDS011;64211;49.404;11.034;2022-12-07T08:21:48;20.25;;;6.72;;
75626;SDS011;64211;49.404;11.034;2022-12-07T08:24:14;18.70;;;6.97;;
75626;SDS011;64211;49.404;11.034;2022-12-07T08:26:41;18.05;;;6.85;;
75626;SDS011;64211;49.404;11.034;2022-12-07T08:29:08;16.35;;;6.28;;
75626;SDS011;64211;49.404;11.034;2022-12-07T08:31:34;16.48;;;5.93;;
75626;SDS011;64211;49.404;11.034;2022-12-07T08:34:02;15.70;;;6.38;;
75626;SDS011;64211;49.404;11.034;2022-12-07T08:36:28;16.40;;;6.95;;
75626;SDS011;64211;49.404;11.034;2022-12-07T08:38:55;12.98;;;6.15;;
75626;SDS011;64211;49.404;11.034;2022-12-07T08:41:41;16.17;;;6.72;;
75626;SDS011;64211;49.404;11.034;2022-12-07T08:44:08;13.82;;;5.57;;
75626;SDS011;64211;49.404;11.034;2022-12-07T08:46:38;16.08;;;5.95;;
75626;SDS011;64211;49.404;11.034;2022-12-07T08:49:09;16.58;;;6.53;;
75626;SDS011;64211;49.404;11.034;2022-12-07T08:51:39;15.48;;;6.25;;
75626;SDS011;64211;49.404;11.034;2022-12-07T08:54:08;15.13;;;7.20;;
75626;SDS011;64211;49.404;11.034;2022-12-07T08:56:37;14.43;;;5.82;;
75626;SDS011;64211;49.404;11.034;2022-12-07T08:59:04;14.93;;;6.55;;
75626;SDS011;64211;49.404;11.034;2022-12-07T09:01:32;16.02;;;6.43;;
75626;SDS011;64211;49.404;11.034;2022-12-07T09:03:59;14.90;;;5.57;;
75626;SDS011;64211;49.404;11.034;2022-12-07T09:06:25;13.75;;;5.32;;
75626;SDS011;64211;49.404;11.034;2022-12-07T09:08:54;16.00;;;6.78;;
75626;SDS011;64211;49.404;11.034;2022-12-07T09:11:24;15.95;;;6.40;;
75626;SDS011;64211;49.404;11.034;2022-12-07T09:13:54;14.82;;;5.82;;
75626;SDS011;64211;49.404;11.034;2022-12-07T09:16:21;12.75;;;5.15;;
75626;SDS011;64211;49.404;11.034;2022-12-07T09:18:47;12.27;;;5.55;;
75626;SDS011;64211;49.404;11.034;2022-12-07T09:21:14;14.25;;;5.70;;
75626;SDS011;64211;49.404;11.034;2022-12-07T09:23:41;14.07;;;5.70;;
75626;SDS011;64211;49.404;11.034;2022-12-07T09:26:08;13.90;;;5.65;;
75626;SDS011;64211;49.404;11.034;2022-12-07T09:28:36;14.18;;;5.32;;
75626;SDS011;64211;49.404;11.034;2022-12-07T09:31:04;10.98;;;4.50;;
75626;SDS011;64211;49.404;11.034;2022-12-07T09:33:55;11.98;;;5.65;;
75626;SDS011;64211;49.404;11.034;2022-12-07T09:36:23;13.50;;;6.50;;
75626;SDS011;64211;49.404;11.034;2022-12-07T09:38:49;15.63;;;5.88;;
75626;SDS011;64211;49.404;11.034;2022-12-07T09:41:16;13.43;;;5.30;;
75626;SDS011;64211;49.404;11.034;2022-12-07T09:43:43;11.73;;;5.40;;
75626;SDS011;64211;49.404;11.034;2022-12-07T09:46:13;16.40;;;5.80;;
75626;SDS011;64211;49.404;11.034;2022-12-07T09:48:42;12.63;;;5.55;;
75626;SDS011;64211;49.404;11.034;2022-12-07T09:51:17;13.70;;;6.13;;
75626;SDS011;64211;49.404;11.034;2022-12-07T09:53:50;15.45;;;6.22;;
75626;SDS011;64211;49.404;11.034;2022-12-07T09:58:45;13.50;;;5.93;;
75626;SDS011;64211;49.404;11.034;2022-12-07T10:01:20;15.10;;;5.75;;
75626;SDS011;64211;49.404;11.034;2022-12-07T10:06:32;12.15;;;5.05;;
75626;SDS011;64211;49.404;11.034;2022-12-07T10:08:58;13.35;;;6.13;;
75626;SDS011;64211;49.404;11.034;2022-12-07T10:11:25;14.35;;;5.53;;
75626;SDS011;64211;49.404;11.034;2022-12-07T10:13:52;10.27;;;4.93;;
75626;SDS011;64211;49.404;11.034;2022-12-07T10:18:54;11.52;;;5.22;;
75626;SDS011;64211;49.404;11.034;2022-12-07T10:21:25;9.45;;;4.30;;
75626;SDS011;64211;49.404;11.034;2022-12-07T10:29:28;12.50;;;4.57;;
75626;SDS011;64211;49.404;11.034;2022-12-07T10:31:58;11.60;;;5.25;;
75626;SDS011;64211;49.404;11.034;2022-12-07T10:34:45;10.02;;;5.13;;
75626;SDS011;64211;49.404;11.034;2022-12-07T10:37:20;11.13;;;5.43;;
75626;SDS011;64211;49.404;11.034;2022-12-07T10:39:55;10.25;;;4.47;;
75626;SDS011;64211;49.404;11.034;2022-12-07T10:47:48;11.73;;;5.55;;
75626;SDS011;64211;49.404;11.034;2022-12-07T11:01:19;12.57;;;5.47;;
75626;SDS011;64211;49.404;11.034;2022-12-07T11:06:39;9.27;;;4.93;;
75626;SDS011;64211;49.404;11.034;2022-12-07T11:17:48;9.80;;;4.70;;
75626;SDS011;64211;49.404;11.034;2022-12-07T11:26:16;13.30;;;5.47;;
75626;SDS011;64211;49.404;11.034;2022-12-07T11:31:30;13.00;;;5.70;;
75626;SDS011;64211;49.404;11.034;2022-12-07T11:37:12;12.10;;;5.68;;
75626;SDS011;64211;49.404;11.034;2022-12-07T11:39:50;13.45;;;5.82;;
75626;SDS011;64211;49.404;11.034;2022-12-07T11:42:25;12.45;;;6.03;;
75626;SDS011;64211;49.404;11.034;2022-12-07T11:48:04;10.93;;;5.53;;
75626;SDS011;64211;49.404;11.034;2022-12-07T11:53:29;9.80;;;4.40;;
75626;SDS011;64211;49.404;11.034;2022-12-07T11:58:55;10.73;;;4.63;;
75626;SDS011;64211;49.404;11.034;2022-12-07T12:04:06;11.95;;;6.18;;
75626;SDS011;64211;49.404;11.034;2022-12-07T12:06:38;12.90;;;6.13;;
75626;SDS011;64211;49.404;11.034;2022-12-07T12:15:07;10.13;;;4.90;;
75626;SDS011;64211;49.404;11.034;2022-12-07T12:21:04;11.75;;;6.28;;
75626;SDS011;64211;49.404;11.034;2022-12-07T12:23:37;11.65;;;5.70;;
75626;SDS011;64211;49.404;11.034;2022-12-07T12:26:06;12.10;;;5.40;;
75626;SDS011;64211;49.404;11.034;2022-12-07T12:28:40;9.48;;;4.97;;
75626;SDS011;64211;49.404;11.034;2022-12-07T12:31:37;11.93;;;6.10;;
75626;SDS011;64211;49.404;11.034;2022-12-07T12:34:29;11.73;;;5.32;;
75626;SDS011;64211;49.404;11.034;2022-12-07T12:36:59;10.38;;;4.93;;
75626;SDS011;64211;49.404;11.034;2022-12-07T12:39:25;10.98;;;5.55;;
75626;SDS011;64211;49.404;11.034;2022-12-07T12:41:53;12.68;;;5.13;;
75626;SDS011;64211;49.404;11.034;2022-12-07T12:50:43;13.80;;;6.00;;
75626;SDS011;64211;49.404;11.034;2022-12-07T12:52:52;13.15;;;6.90;;
75626;SDS011;64211;49.404;11.034;2022-12-07T12:55:27;14.30;;;5.78;;
75626;SDS011;64211;49.404;11.034;2022-12-07T13:00:46;10.57;;;5.10;;
75626;SDS011;64211;49.404;11.034;2022-12-07T13:03:29;10.25;;;5.35;;
75626;SDS011;64211;49.404;11.034;2022-12-07T13:08:51;12.13;;;5.93;;
75626;SDS011;64211;49.404;11.034;2022-12-07T13:11:20;11.85;;;5.22;;
75626;SDS011;64211;49.404;11.034;2022-12-07T13:14:35;10.68;;;5.70;;
75626;SDS011;64211;49.404;11.034;2022-12-07T13:17:00;13.10;;;6.90;;
75626;SDS011;64211;49.404;11.034;2022-12-07T13:19:46;12.48;;;5.75;;
75626;SDS011;64211;49.404;11.034;2022-12-07T13:27:40;14.95;;;6.70;;
75626;SDS011;64211;49.404;11.034;2022-12-07T13:30:13;14.13;;;5.53;;
75626;SDS011;64211;49.404;11.034;2022-12-07T13:32:41;14.07;;;5.80;;
75626;SDS011;64211;49.404;11.034;2022-12-07T13:35:27;12.30;;;5.25;;
75626;SDS011;64211;49.404;11.034;2022-12-07T13:37:54;15.73;;;6.63;;
75626;SDS011;64211;49.404;11.034;2022-12-07T13:40:21;15.15;;;6.22;;
75626;SDS011;64211;49.404;11.034;2022-12-07T13:45:24;13.88;;;6.10;;
75626;SDS011;64211;49.404;11.034;2022-12-07T13:48:31;11.82;;;5.13;;
75626;SDS011;64211;49.404;11.034;2022-12-07T13:51:12;13.23;;;6.20;;
75626;SDS011;64211;49.404;11.034;2022-12-07T13:53:50;16.08;;;7.32;;
75626;SDS011;64211;49.404;11.034;2022-12-07T13:56:20;13.93;;;5.50;;
75626;SDS011;64211;49.404;11.034;2022-12-07T13:58:48;15.43;;;6.63;;
75626;SDS011;64211;49.404;11.034;2022-12-07T14:01:14;18.17;;;6.93;;
75626;SDS011;64211;49.404;11.034;2022-12-07T14:03:41;14.10;;;6.68;;
75626;SDS011;64211;49.404;11.034;2022-12-07T14:06:46;13.02;;;5.78;;
75626;SDS011;64211;49.404;11.034;2022-12-07T14:09:07;15.25;;;7.28;;
75626;SDS011;64211;49.404;11.034;2022-12-07T14:11:35;13.63;;;6.10;;
75626;SDS011;64211;49.404;11.034;2022-12-07T14:16:34;14.88;;;5.72;;
75626;SDS011;64211;49.404;11.034;2022-12-07T14:19:04;13.80;;;5.65;;
75626;SDS011;64211;49.404;11.034;2022-12-07T14:21:33;12.45;;;5.53;;
75626;SDS011;64211;49.404;11.034;2022-12-07T14:24:17;14.75;;;6.60;;
75626;SDS011;64211;49.404;11.034;2022-12-07T14:26:46;14.63;;;5.93;;
75626;SDS011;64211;49.404;11.034;2022-12-07T14:31:53;14.18;;;6.57;;
75626;SDS011;64211;49.404;11.034;2022-12-07T14:34:20;16.10;;;7.70;;
75626;SDS011;64211;49.404;11.034;2022-12-07T14:36:47;13.35;;;6.20;;
75626;SDS011;64211;49.404;11.034;2022-12-07T14:39:14;13.95;;;5.93;;
75626;SDS011;64211;49.404;11.034;2022-12-07T14:41:41;13.80;;;5.95;;
75626;SDS011;64211;49.404;11.034;2022-12-07T14:44:20;14.40;;;6.53;;
75626;SDS011;64211;49.404;11.034;2022-12-07T14:46:54;13.35;;;5.95;;
75626;SDS011;64211;49.404;11.034;2022-12-07T14:49:41;14.98;;;5.38;;
75626;SDS011;64211;49.404;11.034;2022-12-07T14:52:11;15.73;;;6.32;;
75626;SDS011;64211;49.404;11.034;2022-12-07T14:55:01;13.48;;;6.80;;
75626;SDS011;64211;49.404;11.034;2022-12-07T14:57:28;12.68;;;5.82;;
75626;SDS011;64211;49.404;11.034;2022-12-07T14:59:55;16.02;;;7.03;;
75626;SDS011;64211;49.404;11.034;2022-12-07T15:02:21;16.70;;;7.13;;
75626;SDS011;64211;49.404;11.034;2022-12-07T15:04:48;14.68;;;6.63;;
75626;SDS011;64211;49.404;11.034;2022-12-07T15:07:16;18.10;;;7.18;;
75626;SDS011;64211;49.404;11.034;2022-12-07T15:09:46;16.00;;;6.93;;
75626;SDS011;64211;49.404;11.034;2022-12-07T15:12:13;16.17;;;6.95;;
75626;SDS011;64211;49.404;11.034;2022-12-07T15:14:39;15.15;;;6.93;;
75626;SDS011;64211;49.404;11.034;2022-12-07T15:17:06;16.10;;;6.57;;
75626;SDS011;64211;49.404;11.034;2022-12-07T15:19:48;19.17;;;7.38;;
75626;SDS011;64211;49.404;11.034;2022-12-07T15:22:14;15.75;;;6.18;;
75626;SDS011;64211;49.404;11.034;2022-12-07T15:24:41;14.10;;;6.03;;
75626;SDS011;64211;49.404;11.034;2022-12-07T15:27:07;12.55;;;5.88;;
75626;SDS011;64211;49.404;11.034;2022-12-07T15:29:34;14.52;;;5.80;;
75626;SDS011;64211;49.404;11.034;2022-12-07T15:32:00;14.80;;;6.43;;
75626;SDS011;64211;49.404;11.034;2022-12-07T15:34:27;13.80;;;6.28;;
75626;SDS011;64211;49.404;11.034;2022-12-07T15:37:03;16.23;;;6.18;;
75626;SDS011;64211;49.404;11.034;2022-12-07T15:39:29;13.48;;;5.57;;
75626;SDS011;64211;49.404;11.034;2022-12-07T15:41:56;12.38;;;5.60;;
75626;SDS011;64211;49.404;11.034;2022-12-07T15:44:22;12.10;;;6.13;;
75626;SDS011;64211;49.404;11.034;2022-12-07T15:47:07;14.23;;;6.45;;
75626;SDS011;64211;49.404;11.034;2022-12-07T15:49:33;14.75;;;6.68;;
75626;SDS011;64211;49.404;11.034;2022-12-07T15:52:00;14.70;;;6.65;;
75626;SDS011;64211;49.404;11.034;2022-12-07T15:54:27;13.35;;;5.70;;
75626;SDS011;64211;49.404;11.034;2022-12-07T15:56:55;11.40;;;5.57;;
75626;SDS011;64211;49.404;11.034;2022-12-07T15:59:22;14.40;;;6.13;;
75626;SDS011;64211;49.404;11.034;2022-12-07T16:01:49;16.65;;;6.25;;
75626;SDS011;64211;49.404;11.034;2022-12-07T16:04:16;14.70;;;6.30;;
75626;SDS011;64211;49.404;11.034;2022-12-07T16:06:42;14.55;;;6.18;;
75626;SDS011;64211;49.404;11.034;2022-12-07T16:09:09;15.30;;;6.68;;
75626;SDS011;64211;49.404;11.034;2022-12-07T16:11:35;15.07;;;7.82;;
75626;SDS011;64211;49.404;11.034;2022-12-07T16:14:02;15.73;;;6.47;;
75626;SDS011;64211;49.404;11.034;2022-12-07T16:16:28;16.02;;;7.03;;
75626;SDS011;64211;49.404;11.034;2022-12-07T16:18:55;16.70;;;6.22;;
75626;SDS011;64211;49.404;11.034;2022-12-07T16:21:22;16.20;;;6.70;;
75626;SDS011;64211;49.404;11.034;2022-12-07T16:23:50;12.95;;;6.22;;
75626;SDS011;64211;49.404;11.034;2022-12-07T16:26:18;14.15;;;6.78;;
75626;SDS011;64211;49.404;11.034;2022-12-07T16:28:49;19.60;;;7.22;;
75626;SDS011;64211;49.404;11.034;2022-12-07T16:31:18;15.18;;;6.15;;
75626;SDS011;64211;49.404;11.034;2022-12-07T16:33:47;16.40;;;6.25;;
75626;SDS011;64211;49.404;11.034;2022-12-07T16:36:14;16.20;;;6.50;;
75626;SDS011;64211;49.404;11.034;2022-12-07T16:39:02;16.02;;;7.22;;
75626;SDS011;64211;49.404;11.034;2022-12-07T16:41:29;14.68;;;6.05;;
75626;SDS011;64211;49.404;11.034;2022-12-07T16:43:56;15.00;;;6.00;;
75626;SDS011;64211;49.404;11.034;2022-12-07T16:46:22;15.07;;;6.65;;
75626;SDS011;64211;49.404;11.034;2022-12-07T16:48:49;14.23;;;6.63;;
75626;SDS011;64211;49.404;11.034;2022-12-07T16:51:15;14.00;;;5.75;;
75626;SDS011;64211;49.404;11.034;2022-12-07T16:53:42;15.93;;;6.22;;
75626;SDS011;64211;49.404;11.034;2022-12-07T16:56:12;17.02;;;6.50;;
75626;SDS011;64211;49.404;11.034;2022-12-07T16:58:43;16.98;;;6.78;;
75626;SDS011;64211;49.404;11.034;2022-12-07T17:01:11;16.60;;;6.63;;
75626;SDS011;64211;49.404;11.034;2022-12-07T17:03:42;16.67;;;6.80;;
75626;SDS011;64211;49.404;11.034;2022-12-07T17:06:28;20.70;;;8.85;;
75626;SDS011;64211;49.404;11.034;2022-12-07T17:08:55;15.07;;;6.80;;
75626;SDS011;64211;49.404;11.034;2022-12-07T17:11:23;14.32;;;6.10;;
75626;SDS011;64211;49.404;11.034;2022-12-07T17:13:51;18.42;;;8.05;;
75626;SDS011;64211;49.404;11.034;2022-12-07T17:16:37;18.10;;;7.90;;
75626;SDS011;64211;49.404;11.034;2022-12-07T17:19:05;17.55;;;7.75;;
75626;SDS011;64211;49.404;11.034;2022-12-07T17:21:33;20.60;;;8.30;;
75626;SDS011;64211;49.404;11.034;2022-12-07T17:24:00;19.85;;;8.20;;
75626;SDS011;64211;49.404;11.034;2022-12-07T17:26:28;22.25;;;8.80;;
75626;SDS011;64211;49.404;11.034;2022-12-07T17:29:00;19.17;;;8.57;;
75626;SDS011;64211;49.404;11.034;2022-12-07T17:31:27;19.83;;;8.15;;
75626;SDS011;64211;49.404;11.034;2022-12-07T17:33:54;18.63;;;7.82;;
75626;SDS011;64211;49.404;11.034;2022-12-07T17:36:25;18.08;;;8.32;;
75626;SDS011;64211;49.404;11.034;2022-12-07T17:38:53;19.77;;;9.07;;
75626;SDS011;64211;49.404;11.034;2022-12-07T17:41:20;19.98;;;8.13;;
75626;SDS011;64211;49.404;11.034;2022-12-07T17:44:08;19.08;;;8.02;;
75626;SDS011;64211;49.404;11.034;2022-12-07T17:46:36;19.75;;;7.57;;
75626;SDS011;64211;49.404;11.034;2022-12-07T17:49:03;15.65;;;7.60;;
75626;SDS011;64211;49.404;11.034;2022-12-07T17:51:31;23.05;;;9.73;;
75626;SDS011;64211;49.404;11.034;2022-12-07T17:54:16;21.83;;;9.07;;
75626;SDS011;64211;49.404;11.034;2022-12-07T17:56:44;20.92;;;8.63;;
75626;SDS011;64211;49.404;11.034;2022-12-07T17:59:11;16.48;;;7.85;;